Time;durP1;ratioP1;P1;durP2;ratioP2;P2;SDS_P1;SDS_P2;PMS_P1;PMS_P2;Temp;Humidity;BMP_temperature;BMP_pressure;BME280_temperature;BME280_humidity;BME280_pressure;Samples;Min_cycle;Max_cycle;Signal;HPM_P1;HPM_P2
2021/04/19 00:01:01;;;;;;;17.48;10.45;;;10.10;86.10;;;;;;6155813;23;20041;-83
2021/04/19 00:03:33;;;;;;;17.05;11.63;;;10.10;86.40;;;;;;6155382;23;20017;-83
2021/04/19 00:06:01;;;;;;;14.73;10.02;;;10.00;86.30;;;;;;6154802;23;20041;-82
2021/04/19 00:08:33;;;;;;;17.63;11.15;;;10.00;86.40;;;;;;6155040;23;20454;-82
2021/04/19 00:11:02;;;;;;;17.33;10.65;;;9.90;86.00;;;;;;6154484;23;20139;-82
2021/04/19 00:13:28;;;;;;;18.10;11.23;;;9.80;85.20;;;;;;6154680;23;20335;-82
2021/04/19 00:15:54;;;;;;;17.95;11.38;;;9.80;85.10;;;;;;6154971;23;20476;-82
2021/04/19 00:18:25;;;;;;;17.08;10.98;;;9.80;85.40;;;;;;6152730;23;20097;-82
2021/04/19 00:23:32;;;;;;;15.48;10.20;;;9.60;85.40;;;;;;6154569;23;20048;-82
2021/04/19 00:26:01;;;;;;;19.30;11.23;;;9.60;84.90;;;;;;6154614;23;20075;-82
2021/04/19 00:28:33;;;;;;;16.73;10.98;;;9.60;85.60;;;;;;6155155;23;20076;-82
2021/04/19 00:31:02;;;;;;;18.52;11.77;;;9.50;85.40;;;;;;6154887;23;20017;-82
2021/04/19 00:33:35;;;;;;;18.10;11.70;;;9.50;85.90;;;;;;6153033;23;20017;-82
2021/04/19 00:36:01;;;;;;;17.23;11.52;;;9.40;86.00;;;;;;6154162;23;20137;-82
2021/04/19 00:38:29;;;;;;;17.75;11.48;;;9.40;86.10;;;;;;6153784;23;20025;-82
2021/04/19 00:41:03;;;;;;;18.80;12.38;;;9.40;86.50;;;;;;6153801;23;20018;-82
2021/04/19 00:43:29;;;;;;;17.73;12.13;;;9.40;87.00;;;;;;6154697;23;20025;-82
2021/04/19 00:46:02;;;;;;;19.63;11.75;;;9.40;87.00;;;;;;6155012;23;20465;-82
2021/04/19 00:48:29;;;;;;;19.60;13.05;;;9.40;87.00;;;;;;6154967;23;20021;-82
2021/04/19 00:50:55;;;;;;;16.60;11.90;;;9.40;87.10;;;;;;6155496;23;20063;-82
2021/04/19 00:53:28;;;;;;;20.38;12.25;;;9.30;87.10;;;;;;6153201;23;20414;-82
2021/04/19 00:55:57;;;;;;;21.35;12.13;;;9.40;87.40;;;;;;6155181;23;20025;-83
2021/04/19 00:58:31;;;;;;;16.45;11.93;;;9.30;87.20;;;;;;6155012;23;20085;-82
2021/04/19 01:01:07;;;;;;;17.13;12.20;;;9.20;87.30;;;;;;6153831;23;20072;-82
2021/04/19 01:03:34;;;;;;;21.38;13.43;;;9.20;87.00;;;;;;6154153;23;20387;-83
2021/04/19 01:06:04;;;;;;;17.95;12.13;;;9.10;87.10;;;;;;6155213;23;20024;-82
2021/04/19 01:08:36;;;;;;;19.67;12.45;;;9.20;87.40;;;;;;6154083;23;20017;-82
2021/04/19 01:11:08;;;;;;;19.30;12.50;;;9.20;87.60;;;;;;6155083;23;20084;-83
2021/04/19 01:13:36;;;;;;;18.70;12.13;;;9.10;86.80;;;;;;6155170;23;20049;-83
2021/04/19 01:16:05;;;;;;;18.75;12.45;;;9.10;86.90;;;;;;6154419;23;20346;-82
2021/04/19 01:18:31;;;;;;;19.45;12.73;;;9.10;87.30;;;;;;6154828;23;20052;-82
2021/04/19 01:21:09;;;;;;;19.73;12.98;;;9.10;87.30;;;;;;6155386;23;20025;-82
2021/04/19 01:23:37;;;;;;;19.52;12.68;;;9.10;87.40;;;;;;6152424;23;20029;-82
2021/04/19 01:26:31;;;;;;;20.05;12.43;;;9.00;87.20;;;;;;6156036;23;20025;-82
2021/04/19 01:29:03;;;;;;;18.45;12.15;;;9.00;87.20;;;;;;6156223;23;20025;-82
2021/04/19 01:31:34;;;;;;;17.50;12.02;;;9.00;87.30;;;;;;6156002;23;20202;-82
2021/04/19 01:34:03;;;;;;;17.55;12.10;;;9.00;87.20;;;;;;6157082;23;20021;-82
2021/04/19 01:36:30;;;;;;;17.15;12.02;;;8.90;87.20;;;;;;6155962;23;20101;-82
2021/04/19 01:39:02;;;;;;;17.92;11.98;;;8.80;86.90;;;;;;6156906;23;20025;-82
2021/04/19 01:41:31;;;;;;;17.33;12.60;;;8.90;87.10;;;;;;6156412;23;20092;-82
2021/04/19 01:44:14;;;;;;;16.38;11.55;;;8.80;86.70;;;;;;6155838;23;20092;-82
2021/04/19 01:46:40;;;;;;;17.52;11.63;;;8.80;86.50;;;;;;6156273;23;20045;-83
2021/04/19 01:49:14;;;;;;;19.02;11.75;;;8.80;86.70;;;;;;6155138;23;20025;-82
2021/04/19 01:51:43;;;;;;;18.63;12.00;;;8.70;86.90;;;;;;6155986;23;20088;-82
2021/04/19 01:54:12;;;;;;;18.27;11.70;;;8.70;87.10;;;;;;6156237;23;20025;-82
2021/04/19 01:56:39;;;;;;;17.08;11.90;;;8.70;87.00;;;;;;6155915;23;20071;-82
2021/04/19 01:59:05;;;;;;;18.77;11.02;;;8.60;86.90;;;;;;6156055;23;20068;-81
2021/04/19 02:01:34;;;;;;;16.20;11.65;;;8.60;87.30;;;;;;6155788;23;20028;-82
2021/04/19 02:04:10;;;;;;;19.65;12.70;;;8.60;87.30;;;;;;6155187;23;20499;-82
2021/04/19 02:06:48;;;;;;;16.75;11.82;;;8.60;87.60;;;;;;6156446;23;20389;-82
2021/04/19 02:09:24;;;;;;;19.60;12.68;;;8.60;87.60;;;;;;6155404;23;20442;-82
2021/04/19 02:12:05;;;;;;;17.65;11.27;;;8.60;87.80;;;;;;6155216;23;20028;-82
2021/04/19 02:14:38;;;;;;;18.40;11.95;;;8.60;87.60;;;;;;6155307;23;20017;-81
2021/04/19 02:17:11;;;;;;;17.38;11.88;;;8.70;87.70;;;;;;6156445;23;20020;-82
2021/04/19 02:19:48;;;;;;;18.42;11.93;;;8.70;87.80;;;;;;6154581;23;20450;-82
2021/04/19 02:22:37;;;;;;;17.83;11.48;;;8.60;87.70;;;;;;6155615;23;20351;-82
2021/04/19 02:25:12;;;;;;;17.17;11.98;;;8.60;87.40;;;;;;6155160;23;20020;-82
2021/04/19 02:27:43;;;;;;;18.83;11.75;;;8.60;87.50;;;;;;6156469;23;20017;-82
2021/04/19 02:30:12;;;;;;;18.08;11.85;;;8.60;87.70;;;;;;6156146;23;20033;-81
2021/04/19 02:32:43;;;;;;;18.20;12.27;;;8.60;87.70;;;;;;6155163;23;20313;-82
2021/04/19 02:35:11;;;;;;;17.52;11.63;;;8.60;87.90;;;;;;6156221;23;20083;-82
2021/04/19 02:37:39;;;;;;;17.35;11.65;;;8.60;87.80;;;;;;6155796;23;20064;-82
2021/04/19 02:40:08;;;;;;;17.58;11.88;;;8.60;87.70;;;;;;6155317;23;20029;-82
2021/04/19 02:42:41;;;;;;;19.92;12.57;;;8.60;87.50;;;;;;6156300;23;20018;-82
2021/04/19 02:45:09;;;;;;;18.40;11.43;;;8.60;87.50;;;;;;6156435;23;20017;-82
2021/04/19 02:47:38;;;;;;;18.95;11.63;;;8.60;87.40;;;;;;6154849;23;20343;-82
2021/04/19 02:50:10;;;;;;;18.63;13.13;;;8.50;87.10;;;;;;6155998;23;20021;-82
2021/04/19 02:52:36;;;;;;;16.08;10.95;;;8.50;86.80;;;;;;6156265;23;20048;-82
2021/04/19 02:55:03;;;;;;;17.42;11.70;;;8.50;86.90;;;;;;6155350;23;20330;-82
2021/04/19 02:57:37;;;;;;;19.38;11.82;;;8.50;87.00;;;;;;6155385;23;20120;-82
2021/04/19 03:00:05;;;;;;;16.60;11.75;;;8.50;87.00;;;;;;6154309;23;20021;-82
2021/04/19 03:02:33;;;;;;;15.40;11.25;;;8.40;86.90;;;;;;6154810;23;20040;-82
2021/04/19 03:05:01;;;;;;;17.73;12.75;;;8.50;86.80;;;;;;6155878;23;20497;-82
2021/04/19 03:07:36;;;;;;;18.05;11.40;;;8.40;87.10;;;;;;6154659;23;20041;-81
2021/04/19 03:10:09;;;;;;;17.52;11.68;;;8.40;86.70;;;;;;6155976;23;20049;-82
2021/04/19 03:12:36;;;;;;;15.07;11.02;;;8.40;86.90;;;;;;6155931;23;20013;-81
2021/04/19 03:15:13;;;;;;;15.48;11.65;;;8.40;87.00;;;;;;6154914;23;20378;-82
2021/04/19 03:17:40;;;;;;;15.23;11.60;;;8.40;87.10;;;;;;6155940;23;20033;-82
2021/04/19 03:20:13;;;;;;;19.65;11.80;;;8.40;87.10;;;;;;6155564;23;20079;-82
2021/04/19 03:22:42;;;;;;;19.63;13.27;;;8.40;87.50;;;;;;6154606;23;20069;-82
2021/04/19 03:25:09;;;;;;;17.02;12.43;;;8.40;87.70;;;;;;6156165;23;20092;-82
2021/04/19 03:27:38;;;;;;;17.90;12.77;;;8.40;87.50;;;;;;6155848;23;20096;-82
2021/04/19 03:30:06;;;;;;;18.08;12.68;;;8.40;87.70;;;;;;6154933;23;20022;-82
2021/04/19 03:32:35;;;;;;;17.73;11.93;;;8.40;87.40;;;;;;6154996;23;20018;-82
2021/04/19 03:35:08;;;;;;;17.67;12.43;;;8.40;87.30;;;;;;6154063;23;20017;-82
2021/04/19 03:37:39;;;;;;;16.27;11.85;;;8.40;87.40;;;;;;6155261;23;20017;-82
2021/04/19 03:40:10;;;;;;;16.98;12.00;;;8.40;87.40;;;;;;6155053;23;20446;-81
2021/04/19 03:42:39;;;;;;;17.08;12.00;;;8.40;87.60;;;;;;6154708;23;20021;-81
2021/04/19 03:45:07;;;;;;;19.17;12.95;;;8.40;87.60;;;;;;6152936;23;20021;-81
2021/04/19 03:47:34;;;;;;;17.65;12.43;;;8.40;87.70;;;;;;6154906;23;20020;-81
2021/04/19 03:50:03;;;;;;;16.63;12.93;;;8.40;87.70;;;;;;6154830;23;20052;-81
2021/04/19 03:52:35;;;;;;;20.38;12.20;;;8.40;87.80;;;;;;6155383;23;20111;-81
2021/04/19 03:55:03;;;;;;;17.98;12.30;;;8.40;87.60;;;;;;6155214;23;20540;-81
2021/04/19 03:57:31;;;;;;;18.05;12.98;;;8.30;87.50;;;;;;6154040;23;20537;-81
2021/04/19 04:00:05;;;;;;;18.02;12.60;;;8.30;87.40;;;;;;6155724;23;20089;-80
2021/04/19 04:02:36;;;;;;;19.05;13.23;;;8.30;87.40;;;;;;6155450;23;20018;-80
2021/04/19 04:05:05;;;;;;;18.50;11.75;;;8.30;87.50;;;;;;6154234;23;20517;-80
2021/04/19 04:07:33;;;;;;;15.57;11.38;;;8.30;87.40;;;;;;6154333;23;20022;-80
2021/04/19 04:09:59;;;;;;;18.10;12.77;;;8.30;87.00;;;;;;6155202;23;20100;-81
2021/04/19 04:12:25;;;;;;;17.70;11.98;;;8.20;87.00;;;;;;6154115;23;20044;-81
2021/04/19 04:14:56;;;;;;;17.77;12.30;;;8.20;86.70;;;;;;6155348;23;20018;-81
2021/04/19 04:17:21;;;;;;;16.48;12.00;;;8.20;86.70;;;;;;6154601;23;20149;-81
2021/04/19 04:19:47;;;;;;;17.35;12.35;;;8.20;86.60;;;;;;6155255;23;20037;-80
2021/04/19 04:22:15;;;;;;;17.27;12.40;;;8.20;86.70;;;;;;6154944;23;20022;-81
2021/04/19 04:24:41;;;;;;;20.20;13.20;;;8.20;86.60;;;;;;6154577;23;20049;-81
2021/04/19 04:27:08;;;;;;;17.60;12.90;;;8.10;86.80;;;;;;6155259;23;20013;-81
2021/04/19 04:29:34;;;;;;;19.90;12.85;;;8.20;87.10;;;;;;6155544;23;20382;-82
2021/04/19 04:32:13;;;;;;;16.75;12.30;;;8.10;87.00;;;;;;6153487;23;20018;-82
2021/04/19 04:34:39;;;;;;;17.48;12.60;;;8.10;86.90;;;;;;6155044;23;20017;-82
2021/04/19 04:37:05;;;;;;;19.52;11.77;;;8.10;87.10;;;;;;6155310;23;20013;-82
2021/04/19 04:39:31;;;;;;;19.67;12.85;;;8.00;87.10;;;;;;6152131;23;20026;-83
2021/04/19 04:42:06;;;;;;;17.02;12.40;;;8.10;86.80;;;;;;6155630;23;20020;-82
2021/04/19 04:44:46;;;;;;;19.67;13.90;;;8.00;87.20;;;;;;6154755;23;20462;-82
2021/04/19 04:47:33;;;;;;;19.63;13.05;;;8.00;87.30;;;;;;6152306;23;20311;-82
2021/04/19 04:50:37;;;;;;;16.33;12.60;;;8.00;87.60;;;;;;6152833;23;20116;-83
2021/04/19 04:53:15;;;;;;;21.13;13.60;;;8.00;87.20;;;;;;6153559;23;20017;-82
2021/04/19 04:55:43;;;;;;;18.60;13.60;;;8.00;87.20;;;;;;6155439;23;20068;-82
2021/04/19 04:58:12;;;;;;;17.20;12.32;;;8.00;88.30;;;;;;6154515;23;20446;-82
2021/04/19 05:00:51;;;;;;;19.00;13.85;;;7.90;87.10;;;;;;6155211;23;20017;-82
2021/04/19 05:03:31;;;;;;;18.80;12.90;;;7.90;87.60;;;;;;6156593;23;20528;-82
2021/04/19 05:05:57;;;;;;;18.75;13.35;;;7.90;87.10;;;;;;6155638;23;20049;-82
2021/04/19 05:09:03;;;;;;;15.88;12.48;;;7.90;87.20;;;;;;6155367;23;20041;-82
2021/04/19 05:12:00;;;;;;;18.38;13.05;;;7.90;86.90;;;;;;6154542;23;20021;-82
2021/04/19 05:14:32;;;;;;;21.27;13.93;;;7.90;87.10;;;;;;6155898;23;20346;-82
2021/04/19 05:17:19;;;;;;;17.60;13.20;;;7.90;87.40;;;;;;6157212;23;20017;-82
2021/04/19 05:20:04;;;;;;;20.55;13.05;;;7.80;87.40;;;;;;6157396;23;20273;-82
2021/04/19 05:22:30;;;;;;;17.33;12.90;;;7.90;87.20;;;;;;6155852;23;20022;-81
2021/04/19 05:26:33;;;;;;;18.63;13.45;;;7.80;86.90;;;;;;6008823;23;20406;-82
2021/04/19 05:29:01;;;;;;;15.82;12.45;;;7.80;86.70;;;;;;6119288;23;20013;-81
2021/04/19 05:31:34;;;;;;;18.38;13.18;;;7.80;86.70;;;;;;6154457;23;20025;-82
2021/04/19 05:34:13;;;;;;;22.35;12.25;;;7.80;86.80;;;;;;6154627;23;20553;-81
2021/04/19 05:36:47;;;;;;;20.83;12.85;;;7.80;86.40;;;;;;6154853;23;20030;-83
2021/04/19 05:39:14;;;;;;;18.00;12.57;;;7.80;86.90;;;;;;6155608;23;20017;-82
2021/04/19 05:41:41;;;;;;;16.90;12.00;;;7.80;86.50;;;;;;6155783;23;20346;-83
2021/04/19 05:44:06;;;;;;;17.10;12.55;;;7.80;86.20;;;;;;6156765;23;20450;-83
2021/04/19 05:46:32;;;;;;;19.02;12.98;;;7.80;86.20;;;;;;6156386;23;20064;-83
2021/04/19 05:49:00;;;;;;;20.17;12.57;;;7.80;86.40;;;;;;6154612;23;20028;-82
2021/04/19 05:51:31;;;;;;;20.58;13.00;;;7.90;87.30;;;;;;6156551;23;20021;-81
2021/04/19 05:53:57;;;;;;;16.95;12.45;;;7.90;86.80;;;;;;6156254;23;20100;-82
2021/04/19 05:56:35;;;;;;;18.55;12.55;;;7.90;86.70;;;;;;6155228;23;20022;-81
2021/04/19 05:59:19;;;;;;;18.10;12.15;;;7.90;86.70;;;;;;6156134;23;20017;-82
2021/04/19 06:01:48;;;;;;;20.67;12.82;;;7.90;86.70;;;;;;6155155;23;20041;-81
2021/04/19 06:04:28;;;;;;;16.58;11.90;;;7.90;87.10;;;;;;6155909;23;20014;-82
2021/04/19 06:07:26;;;;;;;17.15;12.35;;;7.90;87.30;;;;;;6157332;23;20018;-81
2021/04/19 06:10:00;;;;;;;19.52;12.48;;;8.00;87.30;;;;;;6128335;23;20336;-81
2021/04/19 06:12:33;;;;;;;18.20;12.18;;;8.00;87.80;;;;;;6155611;23;20076;-81
2021/04/19 06:15:13;;;;;;;18.10;11.53;;;8.10;88.00;;;;;;6156433;23;20450;-81
2021/04/19 06:17:44;;;;;;;17.23;11.38;;;8.10;87.80;;;;;;6156067;23;20044;-81
2021/04/19 06:20:13;;;;;;;18.92;11.95;;;8.20;88.10;;;;;;6156890;23;20017;-80
2021/04/19 06:22:40;;;;;;;16.65;12.50;;;8.20;88.00;;;;;;6156510;23;20006;-82
2021/04/19 06:25:08;;;;;;;16.25;11.52;;;8.40;88.10;;;;;;6155356;23;20474;-81
2021/04/19 06:27:34;;;;;;;15.63;10.45;;;8.40;88.00;;;;;;6155952;23;20111;-81
2021/04/19 06:30:11;;;;;;;17.13;11.32;;;8.50;87.30;;;;;;6144216;23;20447;-80
2021/04/19 06:32:38;;;;;;;19.77;11.57;;;8.50;87.40;;;;;;6153614;23;20058;-81
2021/04/19 06:35:04;;;;;;;16.83;11.13;;;8.60;88.40;;;;;;6153895;23;20014;-80
2021/04/19 06:37:30;;;;;;;16.92;11.02;;;8.60;87.20;;;;;;6155921;23;20021;-80
2021/04/19 06:39:58;;;;;;;15.10;11.05;;;8.60;87.30;;;;;;6154865;23;20071;-81
2021/04/19 06:42:31;;;;;;;14.90;10.98;;;8.70;87.20;;;;;;6155166;23;20025;-81
2021/04/19 06:45:05;;;;;;;16.58;10.55;;;8.70;87.20;;;;;;6155294;23;20021;-81
2021/04/19 06:47:37;;;;;;;17.05;10.98;;;8.70;87.30;;;;;;6155471;23;20010;-81
2021/04/19 06:51:01;;;;;;;15.63;9.98;;;8.80;87.20;;;;;;6155922;23;20445;-80
2021/04/19 06:53:26;;;;;;;15.82;10.25;;;8.80;86.70;;;;;;6095594;23;20017;-81
2021/04/19 06:55:52;;;;;;;15.00;10.00;;;8.80;87.20;;;;;;6151329;23;20096;-81
2021/04/19 06:58:19;;;;;;;15.07;9.75;;;8.90;86.70;;;;;;6154967;23;20024;-81
2021/04/19 07:00:49;;;;;;;15.48;10.10;;;8.90;86.70;;;;;;6154391;23;20021;-80
2021/04/19 07:03:44;;;;;;;15.35;9.90;;;8.90;86.70;;;;;;6154451;23;20017;-80
2021/04/19 07:06:27;;;;;;;15.70;10.85;;;9.00;86.20;;;;;;6103876;23;20741;-81
2021/04/19 07:09:15;;;;;;;;;;;;;;;;;;;;;
2021/04/19 07:12:26;;;;;;;14.98;10.35;;;9.10;86.30;;;;;;6083145;23;20025;-80
2021/04/19 07:16:09;;;;;;;16.02;10.23;;;9.10;86.40;;;;;;6095631;23;20025;-82
2021/04/19 07:19:31;;;;;;;17.77;10.57;;;9.10;86.10;;;;;;6096634;23;20030;-81
2021/04/19 07:23:13;;;;;;;16.55;10.88;;;9.20;86.40;;;;;;6014994;23;20027;-81
2021/04/19 07:25:39;;;;;;;15.02;10.57;;;9.30;86.40;;;;;;5996724;23;20035;-80
2021/04/19 07:28:08;;;;;;;17.38;10.48;;;9.40;86.30;;;;;;6054804;23;20018;-80
2021/04/19 07:30:44;;;;;;;16.30;10.35;;;9.60;86.30;;;;;;6121404;23;20098;-79
2021/04/19 07:34:02;;;;;;;18.45;10.85;;;9.60;86.00;;;;;;6116147;23;20018;-82
2021/04/19 07:37:20;;;;;;;15.15;9.98;;;9.80;86.10;;;;;;6122318;23;20399;-79
2021/04/19 07:41:03;;;;;;;14.35;9.82;;;9.90;85.90;;;;;;6123101;23;20094;-80
2021/04/19 07:43:49;;;;;;;16.80;9.88;;;9.90;86.00;;;;;;6035476;23;20334;-79
2021/04/19 07:46:42;;;;;;;16.58;10.55;;;10.00;85.90;;;;;;6049047;23;20017;-79
2021/04/19 07:49:08;;;;;;;19.95;11.32;;;10.10;85.80;;;;;;6125038;23;20022;-82
2021/04/19 07:52:22;;;;;;;17.17;10.65;;;10.30;85.70;;;;;;6126226;23;20024;-82
2021/04/19 07:55:14;;;;;;;18.67;11.63;;;10.40;85.50;;;;;;6008126;23;20028;-81
2021/04/19 07:58:24;;;;;;;;;;;;;;;;;;;;;
2021/04/19 08:01:05;;;;;;;21.13;10.88;;;10.60;85.30;;;;;;5984139;23;20026;-82
2021/04/19 08:12:42;;;;;;;;;;;11.10;84.80;;;;;;6045922;23;20521;-81
2021/04/19 08:15:11;;;;;;;18.40;10.80;;;11.20;84.70;;;;;;6155502;23;19920;-82
2021/04/19 08:17:37;;;;;;;22.20;11.40;;;11.30;84.50;;;;;;6153822;23;20021;-81
2021/04/19 08:20:48;;;;;;;16.92;9.40;;;11.40;84.20;;;;;;6155720;23;20022;-82
2021/04/19 08:25:20;;;;;;;14.68;9.95;;;11.50;83.90;;;;;;6073603;23;20392;-82
2021/04/19 08:28:01;;;;;;;16.02;9.77;;;11.70;83.90;;;;;;6058202;23;20090;-82
2021/04/19 08:30:58;;;;;;;15.93;10.13;;;11.80;83.90;;;;;;6003505;23;20085;-82
2021/04/19 08:34:08;;;;;;;15.50;9.95;;;11.90;83.40;;;;;;6056433;23;20022;-81
2021/04/19 08:40:17;;;;;;;17.77;9.82;;;12.10;83.60;;;;;;6049904;23;20018;-82
2021/04/19 08:46:15;;;;;;;;;;;;;;;;;;;;;
2021/04/19 08:52:16;;;;;;;18.00;10.63;;;12.50;82.60;;;;;;6112152;23;20108;-82
2021/04/19 08:55:02;;;;;;;17.63;10.18;;;12.60;82.70;;;;;;6152248;23;20025;-84
2021/04/19 09:00:29;;;;;;;15.05;9.98;;;12.80;82.80;;;;;;6151347;23;20025;-83
2021/04/19 09:03:01;;;;;;;14.50;9.90;;;12.90;82.80;;;;;;6092775;23;20017;-83
2021/04/19 09:05:27;;;;;;;14.05;10.25;;;13.00;82.40;;;;;;6153987;23;20021;-83
2021/04/19 09:08:44;;;;;;;16.42;9.52;;;13.10;82.10;;;;;;6154687;23;20083;-83
2021/04/19 09:15:58;;;;;;;16.50;10.85;;;13.20;82.00;;;;;;5923444;24;20029;-83
2021/04/19 09:18:27;;;;;;;16.63;11.80;;;13.30;82.40;;;;;;5951383;24;20025;-84
2021/04/19 09:20:59;;;;;;;16.40;10.98;;;13.30;82.40;;;;;;6086764;23;20018;-83
2021/04/19 09:24:07;;;;;;;17.83;11.30;;;13.40;82.50;;;;;;6154980;23;20084;-83
2021/04/19 09:27:15;;;;;;;;;;;;;;;;;;;;;
2021/04/19 09:33:29;;;;;;;17.88;11.57;;;13.70;81.90;;;;;;6111618;23;20025;-83
2021/04/19 09:36:10;;;;;;;16.38;12.00;;;13.70;81.80;;;;;;6153263;23;20454;-81
2021/04/19 09:38:52;;;;;;;16.23;11.70;;;13.80;81.60;;;;;;6150149;23;20017;-83
2021/04/19 09:41:58;;;;;;;18.67;13.02;;;14.00;81.90;;;;;;6149432;23;20025;-82
2021/04/19 09:48:32;;;;;;;18.55;12.98;;;14.10;81.40;;;;;;6064029;23;20094;-83
2021/04/19 09:55:34;;;;;;;17.30;12.50;;;14.30;81.80;;;;;;6006934;23;20022;-82
2021/04/19 09:58:00;;;;;;;20.65;13.80;;;14.40;81.90;;;;;;6104135;23;20017;-83
2021/04/19 10:00:29;;;;;;;21.40;13.40;;;14.40;81.20;;;;;;6154758;23;20359;-82
2021/04/19 10:03:06;;;;;;;17.70;13.48;;;14.50;79.90;;;;;;6155039;23;20021;-82
2021/04/19 10:05:45;;;;;;;17.50;13.13;;;14.50;80.80;;;;;;6155558;23;20354;-84
2021/04/19 10:08:13;;;;;;;17.00;13.43;;;14.70;80.70;;;;;;6154829;23;20374;-85
2021/04/19 10:10:41;;;;;;;18.13;13.25;;;14.70;79.60;;;;;;6155387;23;20021;-85
2021/04/19 10:13:10;;;;;;;16.02;12.60;;;14.70;79.70;;;;;;6155992;23;20056;-85
2021/04/19 10:15:42;;;;;;;17.63;12.45;;;14.80;80.20;;;;;;6155980;23;20195;-84
2021/04/19 10:18:11;;;;;;;17.48;13.60;;;14.90;80.40;;;;;;6154727;23;20020;-84
2021/04/19 10:20:38;;;;;;;17.30;13.30;;;15.00;81.00;;;;;;6154437;23;20379;-84
2021/04/19 10:23:08;;;;;;;18.38;13.57;;;15.10;80.90;;;;;;6155013;23;20073;-84
2021/04/19 10:25:43;;;;;;;15.65;12.73;;;15.10;80.20;;;;;;6148413;23;20076;-85
2021/04/19 10:28:09;;;;;;;17.88;13.02;;;15.10;80.40;;;;;;6154243;23;20088;-85
2021/04/19 10:30:35;;;;;;;20.02;13.88;;;15.20;78.90;;;;;;6153978;23;20041;-84
2021/04/19 10:33:00;;;;;;;17.50;13.13;;;15.20;78.80;;;;;;6155930;23;20028;-85
2021/04/19 10:35:29;;;;;;;16.42;13.43;;;15.20;79.30;;;;;;6155521;23;20021;-85
2021/04/19 10:37:59;;;;;;;15.98;12.82;;;15.30;80.00;;;;;;6155366;23;20053;-85
2021/04/19 10:44:09;;;;;;;19.92;13.20;;;15.30;78.90;;;;;;6130156;23;20041;-85
2021/04/19 10:47:29;;;;;;;15.00;12.63;;;15.40;79.30;;;;;;6156317;23;20081;-85
2021/04/19 10:54:10;;;;;;;15.10;11.93;;;15.60;80.50;;;;;;5925023;24;20025;-86
2021/04/19 10:57:46;;;;;;;17.50;12.45;;;15.70;79.70;;;;;;5928223;23;20021;-86
2021/04/19 11:00:32;;;;;;;16.52;12.82;;;15.70;79.80;;;;;;6000553;23;20031;-85
2021/04/19 11:03:19;;;;;;;;;;;;;;;;;;;;;
2021/04/19 11:10:14;;;;;;;19.58;13.05;;;16.00;79.80;;;;;;6003947;23;20027;-86
2021/04/19 11:13:10;;;;;;;16.90;12.13;;;16.10;80.40;;;;;;6007222;23;20020;-86
2021/04/19 11:15:48;;;;;;;14.30;12.02;;;16.20;78.90;;;;;;6036599;23;20388;-86
2021/04/19 11:22:29;;;;;;;16.88;12.75;;;16.30;79.70;;;;;;6153355;23;20030;-86
2021/04/19 11:24:50;;;;;;;14.90;12.10;;;16.40;79.60;;;;;;6142514;23;20018;-85
2021/04/19 11:27:32;;;;;;;16.65;12.73;;;16.50;79.60;;;;;;6155128;23;20022;-85
2021/04/19 11:29:58;;;;;;;14.65;11.55;;;16.50;79.10;;;;;;6153149;23;20017;-85
2021/04/19 11:32:34;;;;;;;14.70;12.35;;;16.60;77.90;;;;;;6154391;23;20037;-87
2021/04/19 11:35:03;;;;;;;14.68;11.50;;;16.60;79.20;;;;;;6154896;23;20320;-85
2021/04/19 11:37:37;;;;;;;15.80;12.05;;;16.70;79.20;;;;;;6155487;23;20022;-86
2021/04/19 11:40:41;;;;;;;14.50;11.45;;;16.80;79.20;;;;;;6156144;23;20017;-85
2021/04/19 11:43:34;;;;;;;15.73;11.93;;;16.90;79.40;;;;;;6155775;23;20018;-86
2021/04/19 11:46:14;;;;;;;16.33;11.83;;;16.90;78.50;;;;;;6156394;23;20079;-86
2021/04/19 11:49:03;;;;;;;13.82;11.75;;;17.00;78.90;;;;;;6155033;23;20013;-86
2021/04/19 11:51:34;;;;;;;16.40;11.60;;;17.10;78.80;;;;;;6155096;23;20397;-85
2021/04/19 11:53:59;;;;;;;14.40;11.52;;;17.10;78.70;;;;;;6155522;23;20022;-86
2021/04/19 11:56:31;;;;;;;14.30;12.00;;;17.10;78.30;;;;;;6152357;23;20023;-85
2021/04/19 11:59:03;;;;;;;14.05;12.02;;;17.30;78.70;;;;;;6154834;23;20021;-85
2021/04/19 12:01:32;;;;;;;15.05;11.90;;;17.20;78.10;;;;;;6154559;23;20024;-86
2021/04/19 12:03:58;;;;;;;15.77;12.30;;;17.20;78.00;;;;;;6155881;23;20033;-86
2021/04/19 12:06:26;;;;;;;16.85;12.13;;;17.30;77.60;;;;;;6155603;23;20021;-85
2021/04/19 12:08:52;;;;;;;14.63;12.18;;;17.30;77.70;;;;;;6153748;23;20017;-84
2021/04/19 12:11:34;;;;;;;13.52;11.35;;;17.30;78.00;;;;;;6154921;23;20021;-86
2021/04/19 12:14:06;;;;;;;15.77;12.63;;;17.30;78.10;;;;;;6155680;23;20021;-86
2021/04/19 12:16:32;;;;;;;16.15;11.63;;;17.30;77.70;;;;;;6154601;23;20017;-85
2021/04/19 12:19:02;;;;;;;15.13;12.20;;;17.30;76.60;;;;;;6155081;23;20013;-85
2021/04/19 12:21:31;;;;;;;15.45;11.65;;;17.30;76.10;;;;;;6155053;23;20031;-86
2021/04/19 12:24:09;;;;;;;15.90;12.35;;;17.30;75.70;;;;;;6154679;23;20017;-85
2021/04/19 12:26:35;;;;;;;14.30;11.88;;;17.30;76.10;;;;;;6155720;23;20020;-85
2021/04/19 12:29:01;;;;;;;15.35;11.70;;;17.20;75.00;;;;;;6154902;23;20100;-86
2021/04/19 12:31:27;;;;;;;14.63;12.35;;;17.10;72.90;;;;;;6153081;23;20021;-86
2021/04/19 12:34:05;;;;;;;16.02;12.70;;;17.20;75.80;;;;;;6155160;23;20381;-85
2021/04/19 12:36:34;;;;;;;13.90;11.93;;;17.20;77.30;;;;;;6154417;23;20021;-85
2021/04/19 12:39:06;;;;;;;14.90;11.98;;;17.20;76.70;;;;;;6157263;23;20017;-84
2021/04/19 12:41:33;;;;;;;13.45;11.40;;;17.20;75.70;;;;;;6104948;23;20017;-86
2021/04/19 12:44:01;;;;;;;17.23;11.68;;;17.20;76.00;;;;;;6154233;23;20018;-86
2021/04/19 12:46:49;;;;;;;16.35;11.50;;;17.20;76.00;;;;;;6155114;23;20017;-86
2021/04/19 12:53:11;;;;;;;15.55;11.48;;;17.20;75.70;;;;;;6154379;23;20076;-87
2021/04/19 13:00:01;;;;;;;13.60;10.90;;;17.30;76.60;;;;;;6153694;23;20035;-89
2021/04/19 13:03:35;;;;;;;13.52;11.38;;;17.30;74.60;;;;;;5966655;23;20150;-89
2021/04/19 13:09:37;;;;;;;16.92;11.80;;;17.40;76.70;;;;;;6154276;23;20029;-85
2021/04/19 13:12:18;;;;;;;15.55;11.93;;;17.50;75.10;;;;;;6136190;23;20022;-88
2021/04/19 13:14:55;;;;;;;14.00;11.10;;;17.50;76.00;;;;;;6154798;23;20020;-86
2021/04/19 13:20:56;;;;;;;14.90;10.23;;;17.60;77.00;;;;;;6180772;23;20028;-86
2021/04/19 13:37:03;;;;;;;12.95;11.00;;;17.70;76.70;;;;;;6146041;23;20025;-86
2021/04/19 13:40:36;;;;;;;15.32;11.55;;;17.80;77.20;;;;;;6155209;23;20032;-87
2021/04/19 14:13:14;;;;;;;;;;;;;;;;;;;;;
2021/04/19 14:33:43;;;;;;;13.48;11.75;;;18.40;76.00;;;;;;6156255;23;20016;-84
2021/04/19 14:36:45;;;;;;;12.65;11.30;;;18.50;75.50;;;;;;6154886;23;20017;-86
2021/04/19 14:39:30;;;;;;;14.57;11.45;;;18.60;75.90;;;;;;6155803;23;20480;-85
2021/04/19 15:06:22;;;;;;;15.82;12.63;;;19.00;77.40;;;;;;6104448;23;20065;-85
2021/04/19 15:09:03;;;;;;;13.63;12.05;;;19.00;78.00;;;;;;6126226;23;20398;-87
2021/04/19 15:11:31;;;;;;;14.15;12.00;;;19.10;77.50;;;;;;6125531;23;20564;-84
2021/04/19 15:14:37;;;;;;;15.32;13.23;;;19.20;74.70;;;;;;6127059;23;20017;-86
2021/04/19 15:17:37;;;;;;;14.02;12.52;;;19.10;76.90;;;;;;6126422;23;20348;-86
2021/04/19 15:20:37;;;;;;;13.50;12.07;;;19.10;77.00;;;;;;6125499;23;20022;-85
2021/04/19 15:23:10;;;;;;;13.85;12.45;;;19.10;75.40;;;;;;6126746;23;20049;-85
2021/04/19 15:26:06;;;;;;;13.63;12.13;;;19.10;76.90;;;;;;6123568;23;20053;-86
2021/04/19 15:32:31;;;;;;;14.52;12.75;;;19.20;78.60;;;;;;6126377;23;20080;-85
2021/04/19 15:39:07;;;;;;;16.13;14.43;;;19.00;77.80;;;;;;6037466;23;20018;-86
2021/04/19 15:41:36;;;;;;;15.40;13.38;;;19.00;80.10;;;;;;6036023;23;20022;-85
2021/04/19 15:44:20;;;;;;;15.43;13.82;;;19.00;80.50;;;;;;6036975;23;20026;-85
2021/04/19 15:46:46;;;;;;;16.15;14.45;;;19.00;80.10;;;;;;6035389;23;20042;-86
2021/04/19 15:49:20;;;;;;;16.00;14.40;;;19.10;80.60;;;;;;6038269;23;20023;-89
2021/04/19 15:52:01;;;;;;;17.55;14.48;;;19.10;82.20;;;;;;6036075;23;20356;-88
2021/04/19 15:54:52;;;;;;;17.02;14.55;;;19.10;79.50;;;;;;6036012;23;20024;-87
2021/04/19 15:57:18;;;;;;;16.13;12.90;;;19.00;80.40;;;;;;6035583;23;20401;-91
2021/04/19 15:59:44;;;;;;;16.65;14.95;;;19.10;79.10;;;;;;6091155;23;20033;-90
2021/04/19 16:10:13;;;;;;;16.67;14.85;;;18.80;75.70;;;;;;6155726;23;20048;-91
2021/04/19 16:13:01;;;;;;;17.02;15.32;;;18.80;77.80;;;;;;6154578;23;20087;-85
2021/04/19 16:15:30;;;;;;;16.50;14.80;;;18.80;82.30;;;;;;6154308;23;20056;-83
2021/04/19 16:17:59;;;;;;;16.63;14.93;;;18.90;83.60;;;;;;6155052;23;20383;-84
2021/04/19 16:20:25;;;;;;;16.67;13.75;;;18.80;81.30;;;;;;6155380;23;20021;-83
2021/04/19 16:26:21;;;;;;;16.48;14.80;;;18.90;80.70;;;;;;6156494;23;20084;-86
2021/04/19 16:28:47;;;;;;;;;;;18.90;80.50;;;;;;6155407;23;20017;-87